createdAt,value
2018-10-11T00:00:31.381Z,16.40
2018-10-11T00:05:41.004Z,16.40
2018-10-11T00:10:51.287Z,16.30
2018-10-11T00:16:01.266Z,16.30
2018-10-11T00:21:11.768Z,16.20
2018-10-11T00:26:21.573Z,16.20
2018-10-11T00:31:31.130Z,16.10
2018-10-11T00:36:41.108Z,16.10
2018-10-11T00:41:51.109Z,16.00
2018-10-11T00:47:00.919Z,16.10
2018-10-11T00:52:10.682Z,16.00
2018-10-11T00:57:20.807Z,16.00
2018-10-11T01:02:30.626Z,16.00
2018-10-11T01:07:40.428Z,15.80
2018-10-11T01:12:50.120Z,15.60
2018-10-11T01:17:59.811Z,15.50
2018-10-11T01:23:10.037Z,15.50
2018-10-11T01:28:19.618Z,15.50
2018-10-11T01:33:29.290Z,15.60
2018-10-11T01:38:39.169Z,15.60
2018-10-11T01:43:48.824Z,15.30
2018-10-11T01:48:58.664Z,15.20
2018-10-11T01:54:08.434Z,15.20
2018-10-11T01:59:18.853Z,15.10
2018-10-11T02:04:29.424Z,15.20
2018-10-11T02:09:39.427Z,15.40
2018-10-11T02:14:49.133Z,15.90
2018-10-11T02:19:58.921Z,16.10
2018-10-11T02:25:08.865Z,16.40
2018-10-11T02:30:18.712Z,16.60
2018-10-11T02:35:28.625Z,16.60
2018-10-11T02:40:38.377Z,16.40
2018-10-11T02:45:48.337Z,16.20
2018-10-11T02:50:57.888Z,15.90
2018-10-11T02:56:08.194Z,15.70
2018-10-11T03:01:18.391Z,15.60
2018-10-11T03:06:29.035Z,15.40
2018-10-11T03:11:38.792Z,15.30
2018-10-11T03:16:49.140Z,15.20
2018-10-11T03:21:59.075Z,15.30
2018-10-11T03:27:08.928Z,15.40
2018-10-11T03:32:18.676Z,15.50
2018-10-11T03:37:28.612Z,15.50
2018-10-11T03:42:38.347Z,15.50
2018-10-11T03:47:48.687Z,15.30
2018-10-11T03:52:59.131Z,15.10
2018-10-11T03:58:08.873Z,15.00
2018-10-11T04:03:18.679Z,14.90
2018-10-11T04:08:29.631Z,14.80
2018-10-11T04:13:41.092Z,14.80
2018-10-11T04:18:51.844Z,14.70
2018-10-11T04:24:01.790Z,14.70
2018-10-11T04:29:11.408Z,14.50
2018-10-11T04:34:21.069Z,14.70
2018-10-11T04:39:30.682Z,14.70
2018-10-11T04:44:40.387Z,14.70
2018-10-11T04:49:50.551Z,14.60
2018-10-11T04:55:00.171Z,14.60
2018-10-11T05:00:11.184Z,14.50
2018-10-11T05:05:21.947Z,14.30
2018-10-11T05:10:31.492Z,14.10
2018-10-11T05:15:42.060Z,14.40
2018-10-11T05:20:51.484Z,14.20
2018-10-11T05:26:00.849Z,14.20
2018-10-11T05:31:11.112Z,14.10
2018-10-11T05:36:20.792Z,14.20
2018-10-11T05:41:30.440Z,15.90
2018-10-11T05:46:39.915Z,14.00
2018-10-11T05:51:49.574Z,13.90
2018-10-11T05:56:59.276Z,14.00
2018-10-11T06:02:08.751Z,14.20
2018-10-11T06:07:18.408Z,14.50
2018-10-11T06:12:28.081Z,14.50
2018-10-11T06:17:37.843Z,14.60
2018-10-11T06:22:47.613Z,14.50
2018-10-11T06:27:57.028Z,14.50
2018-10-11T06:33:06.781Z,14.50
2018-10-11T06:38:16.158Z,14.50
2018-10-11T06:43:25.867Z,14.60
2018-10-11T06:48:35.603Z,14.80
2018-10-11T06:53:45.247Z,14.90
2018-10-11T06:58:54.820Z,15.50
2018-10-11T07:04:04.372Z,15.90
2018-10-11T07:09:13.939Z,16.30
2018-10-11T07:14:23.479Z,16.70
2018-10-11T07:19:33.054Z,16.70
2018-10-11T07:24:42.704Z,17.10
2018-10-11T07:29:52.101Z,17.60
2018-10-11T07:35:01.796Z,17.20
2018-10-11T07:40:11.475Z,17.50
2018-10-11T07:45:21.078Z,17.40
2018-10-11T07:50:30.820Z,17.30
2018-10-11T07:55:40.246Z,17.60
2018-10-11T08:00:49.815Z,17.40
2018-10-11T08:05:59.580Z,18.10
2018-10-11T08:11:09.282Z,18.60
2018-10-11T08:16:18.882Z,19.20
2018-10-11T08:21:28.563Z,19.40
2018-10-11T08:26:38.181Z,19.90
2018-10-11T08:31:47.967Z,19.80
2018-10-11T08:36:57.689Z,20.20
2018-10-11T08:42:07.739Z,20.20
2018-10-11T08:47:17.260Z,20.70
2018-10-11T08:52:27.027Z,22.50
2018-10-11T08:57:36.448Z,22.20
2018-10-11T09:02:46.106Z,22.30
2018-10-11T09:07:55.847Z,23.40
2018-10-11T09:13:05.773Z,23.20
2018-10-11T09:18:15.204Z,22.30
2018-10-11T09:23:25.008Z,23.20
2018-10-11T09:28:34.486Z,23.70
2018-10-11T09:33:44.151Z,25.70
2018-10-11T09:38:53.977Z,25.00
2018-10-11T09:44:03.393Z,24.90
2018-10-11T09:49:13.160Z,26.20
2018-10-11T09:54:22.760Z,25.30
2018-10-11T09:59:32.408Z,26.40
2018-10-11T10:04:44.360Z,25.50
2018-10-11T10:09:53.830Z,27.70
2018-10-11T10:15:03.542Z,25.50
2018-10-11T10:20:13.009Z,24.70
2018-10-11T10:25:22.702Z,25.60
2018-10-11T10:30:37.831Z,26.30
2018-10-11T10:35:47.508Z,27.40
2018-10-11T10:40:57.219Z,28.70
2018-10-11T10:46:06.880Z,27.00
2018-10-11T10:51:16.343Z,27.70
2018-10-11T10:56:26.040Z,28.60
2018-10-11T11:01:35.617Z,28.70
2018-10-11T11:06:45.260Z,27.70
2018-10-11T11:11:54.764Z,28.60
2018-10-11T11:17:04.148Z,27.90
2018-10-11T11:22:13.540Z,28.40
2018-10-11T11:27:23.208Z,27.80
2018-10-11T11:32:32.814Z,28.60
2018-10-11T11:37:42.544Z,27.40
2018-10-11T11:42:52.241Z,26.90
2018-10-11T11:48:02.097Z,27.20
2018-10-11T11:53:11.697Z,27.80
2018-10-11T11:58:21.231Z,27.90
2018-10-11T12:03:30.899Z,27.40
2018-10-11T12:08:41.463Z,27.30
2018-10-11T12:13:50.824Z,27.80
2018-10-11T12:19:00.279Z,30.60
2018-10-11T12:24:09.930Z,31.20
2018-10-11T12:29:19.486Z,29.50
2018-10-11T12:34:29.117Z,28.40
2018-10-11T12:39:38.822Z,27.00
2018-10-11T12:44:48.444Z,26.90
2018-10-11T12:49:58.075Z,27.10
2018-10-11T12:55:08.238Z,26.10
2018-10-11T13:00:18.164Z,25.90
2018-10-11T13:05:27.656Z,26.40
2018-10-11T13:10:37.320Z,25.80
2018-10-11T13:15:47.103Z,24.80
2018-10-11T13:20:56.532Z,24.30
2018-10-11T13:26:06.166Z,24.10
2018-10-11T13:31:15.705Z,24.00
2018-10-11T13:36:25.173Z,24.10
2018-10-11T13:41:34.934Z,24.20
2018-10-11T13:46:44.309Z,23.60
2018-10-11T13:51:53.987Z,23.70
2018-10-11T13:57:03.623Z,23.70
2018-10-11T14:02:13.252Z,23.30
2018-10-11T14:07:22.904Z,23.40
2018-10-11T14:12:32.273Z,23.20
2018-10-11T14:17:42.021Z,23.10
2018-10-11T14:22:51.415Z,23.10
2018-10-11T14:28:01.027Z,23.10
2018-10-11T14:33:10.704Z,23.20
2018-10-11T14:38:20.743Z,23.10
2018-10-11T14:43:30.298Z,23.10
2018-10-11T14:48:39.882Z,22.90
2018-10-11T14:53:52.781Z,23.10
2018-10-11T14:58:58.918Z,23.30
2018-10-11T15:04:08.536Z,20.50
2018-10-11T15:09:18.230Z,24.40
2018-10-11T15:14:27.783Z,23.90
2018-10-11T15:19:37.520Z,23.30
2018-10-11T15:24:47.050Z,23.50
2018-10-11T15:29:56.654Z,23.00
2018-10-11T15:35:06.209Z,22.70
2018-10-11T15:40:15.821Z,22.60
2018-10-11T15:45:25.200Z,22.60
2018-10-11T15:50:34.947Z,22.50
2018-10-11T15:55:45.335Z,22.30
2018-10-11T16:00:54.896Z,22.30
2018-10-11T16:06:04.486Z,22.30
2018-10-11T16:11:14.030Z,22.40
2018-10-11T16:16:23.470Z,25.90
2018-10-11T16:21:33.160Z,22.30
2018-10-11T16:26:42.769Z,22.30
2018-10-11T16:31:53.123Z,22.30
2018-10-11T16:37:02.599Z,22.20
2018-10-11T16:42:12.203Z,22.10
2018-10-11T16:47:21.801Z,22.10
2018-10-11T16:52:31.329Z,22.00
2018-10-11T16:57:40.728Z,21.80
2018-10-11T17:02:50.377Z,21.60
2018-10-11T17:08:00.114Z,21.50
2018-10-11T17:13:09.723Z,21.30
2018-10-11T17:18:19.136Z,21.10
2018-10-11T17:23:28.601Z,20.90
2018-10-11T17:28:38.124Z,20.80
2018-10-11T17:33:47.742Z,20.70
2018-10-11T17:38:57.420Z,20.60
2018-10-11T17:44:07.194Z,20.40
2018-10-11T17:49:16.716Z,20.30
2018-10-11T17:54:26.376Z,20.20
2018-10-11T17:59:36.066Z,20.10
2018-10-11T18:04:46.164Z,19.90
2018-10-11T18:09:55.761Z,19.90
2018-10-11T18:15:05.258Z,19.80
2018-10-11T18:20:14.794Z,19.70
2018-10-11T18:25:24.908Z,19.60
2018-10-11T18:30:34.362Z,23.10
2018-10-11T18:35:43.916Z,19.50
2018-10-11T18:40:53.509Z,19.60
2018-10-11T18:46:03.875Z,19.50
2018-10-11T18:51:13.496Z,19.60
2018-10-11T18:56:22.912Z,19.50
2018-10-11T19:01:32.912Z,19.50
2018-10-11T19:06:42.461Z,19.00
2018-10-11T19:11:51.981Z,19.30
2018-10-11T19:17:01.593Z,19.30
2018-10-11T19:22:11.184Z,19.20
2018-10-11T19:27:20.821Z,19.30
2018-10-11T19:32:30.600Z,19.20
2018-10-11T19:37:40.216Z,19.20
2018-10-11T19:42:49.867Z,19.10
2018-10-11T19:47:59.545Z,19.10
2018-10-11T19:53:09.145Z,19.00
2018-10-11T19:58:19.079Z,19.00
2018-10-11T20:03:28.840Z,19.00
2018-10-11T20:08:39.169Z,19.00
2018-10-11T20:13:50.520Z,19.00
2018-10-11T20:19:05.258Z,19.00
2018-10-11T20:24:15.216Z,18.90
2018-10-11T20:29:24.809Z,19.00
2018-10-11T20:34:34.263Z,21.60
2018-10-11T20:39:43.735Z,19.00
2018-10-11T20:44:53.344Z,18.90
2018-10-11T20:50:02.847Z,18.90
2018-10-11T20:55:12.561Z,19.00
2018-10-11T21:00:22.304Z,18.90
2018-10-11T21:05:32.467Z,18.90
2018-10-11T21:10:43.269Z,18.80
2018-10-11T21:15:53.389Z,18.80
2018-10-11T21:21:02.788Z,18.70
2018-10-11T21:26:12.287Z,18.80
2018-10-11T21:31:21.830Z,18.70
2018-10-11T21:36:31.808Z,18.60
2018-10-11T21:41:42.868Z,18.50
2018-10-11T21:46:52.947Z,18.50
2018-10-11T21:52:02.624Z,18.50
2018-10-11T21:57:12.296Z,18.40
2018-10-11T22:02:22.064Z,18.40
2018-10-11T22:07:32.268Z,18.40
2018-10-11T22:12:42.253Z,18.40
2018-10-11T22:17:51.723Z,18.40
2018-10-11T22:23:01.372Z,18.40
2018-10-11T22:28:10.878Z,18.40
2018-10-11T22:33:20.368Z,18.30
2018-10-11T22:38:30.032Z,18.40
2018-10-11T22:43:39.705Z,18.30
2018-10-11T22:48:49.620Z,18.30
2018-10-11T22:53:59.228Z,18.20
2018-10-11T22:59:08.869Z,18.10
2018-10-11T23:04:18.715Z,18.00
2018-10-11T23:09:29.530Z,17.90
2018-10-11T23:14:39.004Z,17.80
2018-10-11T23:19:48.460Z,17.70
2018-10-11T23:24:58.131Z,17.70
2018-10-11T23:30:08.291Z,17.60
2018-10-11T23:35:18.360Z,17.70
2018-10-11T23:40:27.954Z,17.60
2018-10-11T23:45:38.273Z,17.60
2018-10-11T23:50:47.648Z,17.50
2018-10-11T23:55:57.141Z,17.50
